createdAt,value
2022-12-13T00:01:36.413Z,14.10
2022-12-13T00:04:06.862Z,11.23
2022-12-13T00:06:35.642Z,11.70
2022-12-13T00:09:03.971Z,13.43
2022-12-13T00:11:31.886Z,10.85
2022-12-13T00:13:59.888Z,13.10
2022-12-13T00:16:28.816Z,9.82
2022-12-13T00:18:59.861Z,17.85
2022-12-13T00:21:29.960Z,15.13
2022-12-13T00:23:58.589Z,10.60
2022-12-13T00:26:28.888Z,15.88
2022-12-13T00:28:56.911Z,16.52
2022-12-13T00:31:56.664Z,13.70
2022-12-13T00:34:15.851Z,14.95
2022-12-13T00:36:43.884Z,17.45
2022-12-13T00:39:13.929Z,13.52
2022-12-13T00:41:41.927Z,15.55
2022-12-13T00:44:11.108Z,14.93
2022-12-13T00:46:39.386Z,17.35
2022-12-13T00:49:07.435Z,15.18
2022-12-13T00:51:36.849Z,12.80
2022-12-13T00:54:04.859Z,15.35
2022-12-13T00:56:34.126Z,14.45
2022-12-13T00:59:02.275Z,19.73
2022-12-13T01:01:32.711Z,13.20
2022-12-13T01:04:02.427Z,18.20
2022-12-13T01:06:34.111Z,16.88
2022-12-13T01:09:04.479Z,13.00
2022-12-13T01:11:32.399Z,16.63
2022-12-13T01:14:00.268Z,16.77
2022-12-13T01:16:28.233Z,16.40
2022-12-13T01:18:58.454Z,11.18
2022-12-13T01:21:26.416Z,19.42
2022-12-13T01:23:54.294Z,15.77
2022-12-13T01:26:23.558Z,17.55
2022-12-13T01:28:51.935Z,10.15
2022-12-13T01:31:21.616Z,16.30
2022-12-13T01:33:50.075Z,12.10
2022-12-13T01:36:27.046Z,13.60
2022-12-13T01:38:58.607Z,9.80
2022-12-13T01:41:29.940Z,10.05
2022-12-13T01:44:03.097Z,12.82
2022-12-13T01:46:32.759Z,11.45
2022-12-13T01:49:06.136Z,14.35
2022-12-13T01:51:51.348Z,12.95
2022-12-13T01:54:23.950Z,13.38
2022-12-13T01:57:00.914Z,11.98
2022-12-13T01:59:29.692Z,12.13
2022-12-13T02:02:00.965Z,16.58
2022-12-13T02:04:37.356Z,12.13
2022-12-13T02:07:14.163Z,10.57
2022-12-13T02:09:56.497Z,12.95
2022-12-13T02:12:30.250Z,13.63
2022-12-13T02:15:12.204Z,13.98
2022-12-13T02:18:02.210Z,10.10
2022-12-13T02:20:58.456Z,20.63
2022-12-13T02:23:50.467Z,11.15
2022-12-13T02:26:47.045Z,12.98
2022-12-13T02:29:48.416Z,15.10
2022-12-13T02:32:25.419Z,14.48
2022-12-13T02:34:58.786Z,13.23
2022-12-13T02:37:32.965Z,9.48
2022-12-13T02:40:08.430Z,9.38
2022-12-13T02:42:42.771Z,10.85
2022-12-13T02:45:20.285Z,12.15
2022-12-13T02:47:53.292Z,12.80
2022-12-13T02:50:22.870Z,12.65
2022-12-13T02:52:52.418Z,12.25
2022-12-13T02:55:23.929Z,16.08
2022-12-13T02:57:54.481Z,8.07
2022-12-13T03:00:28.087Z,13.55
2022-12-13T03:03:11.229Z,10.18
2022-12-13T03:06:06.025Z,14.15
2022-12-13T03:08:46.559Z,8.25
2022-12-13T03:11:17.224Z,16.30
2022-12-13T03:13:50.866Z,5.82
2022-12-13T03:16:28.383Z,8.32
2022-12-13T03:19:01.831Z,9.95
2022-12-13T03:21:29.811Z,12.52
2022-12-13T03:23:57.647Z,13.70
2022-12-13T03:26:27.842Z,11.68
2022-12-13T03:28:55.917Z,15.30
2022-12-13T03:31:24.007Z,12.80
2022-12-13T03:33:51.905Z,10.38
2022-12-13T03:36:21.857Z,11.65
2022-12-13T03:38:52.282Z,16.50
2022-12-13T03:41:23.238Z,9.20
2022-12-13T03:43:51.627Z,9.55
2022-12-13T03:46:19.527Z,11.18
2022-12-13T03:48:47.401Z,13.05
2022-12-13T03:51:15.263Z,15.23
2022-12-13T03:53:44.540Z,10.02
2022-12-13T03:56:12.409Z,12.73
2022-12-13T03:58:42.120Z,8.32
2022-12-13T04:01:12.303Z,11.60
2022-12-13T04:03:41.506Z,12.75
2022-12-13T04:06:10.240Z,10.23
2022-12-13T04:08:39.346Z,13.25
2022-12-13T04:11:22.764Z,11.07
2022-12-13T04:13:50.751Z,9.10
2022-12-13T04:16:18.714Z,9.45
2022-12-13T04:18:46.637Z,11.65
2022-12-13T04:21:14.532Z,9.75
2022-12-13T04:23:42.728Z,13.15
2022-12-13T04:26:11.978Z,8.65
2022-12-13T04:28:39.885Z,12.68
2022-12-13T04:31:07.820Z,7.18
2022-12-13T04:33:35.771Z,11.90
2022-12-13T04:36:03.915Z,13.23
2022-12-13T04:38:31.816Z,10.13
2022-12-13T04:41:07.358Z,8.88
2022-12-13T04:43:36.656Z,16.45
2022-12-13T04:46:04.590Z,12.20
2022-12-13T04:48:33.496Z,11.13
2022-12-13T04:51:01.663Z,8.32
2022-12-13T04:53:29.921Z,11.45
2022-12-13T04:55:58.092Z,10.63
2022-12-13T04:58:26.176Z,19.40
2022-12-13T05:00:55.650Z,12.90
2022-12-13T05:03:24.358Z,11.25
2022-12-13T05:05:52.426Z,8.65
2022-12-13T05:08:20.456Z,11.90
2022-12-13T05:10:48.505Z,11.55
2022-12-13T05:13:16.423Z,10.55
2022-12-13T05:15:44.314Z,12.63
2022-12-13T05:18:13.624Z,14.02
2022-12-13T05:20:41.588Z,13.70
2022-12-13T05:23:09.466Z,12.25
2022-12-13T05:25:37.747Z,9.35
2022-12-13T05:28:08.824Z,9.80
2022-12-13T05:30:54.710Z,8.93
2022-12-13T05:33:25.499Z,5.85
2022-12-13T05:35:59.206Z,11.43
2022-12-13T05:38:28.516Z,10.65
2022-12-13T05:40:56.535Z,12.93
2022-12-13T05:43:24.942Z,8.98
2022-12-13T05:46:11.905Z,8.73
2022-12-13T05:48:41.388Z,12.30
2022-12-13T05:51:11.902Z,8.52
2022-12-13T05:53:41.195Z,11.48
2022-12-13T05:56:10.238Z,12.25
2022-12-13T05:58:38.957Z,12.73
2022-12-13T06:01:08.646Z,14.50
2022-12-13T06:03:36.950Z,8.80
2022-12-13T06:06:07.866Z,16.55
2022-12-13T06:08:36.023Z,14.90
2022-12-13T06:11:11.193Z,14.40
2022-12-13T06:13:42.668Z,11.25
2022-12-13T06:16:23.104Z,11.10
2022-12-13T06:19:02.768Z,9.48
2022-12-13T06:21:39.183Z,13.70
2022-12-13T06:24:11.587Z,14.35
2022-12-13T06:26:39.480Z,10.13
2022-12-13T06:29:07.478Z,8.10
2022-12-13T06:31:35.366Z,11.68
2022-12-13T06:34:15.240Z,11.80
2022-12-13T06:36:44.870Z,10.13
2022-12-13T06:39:15.667Z,14.65
2022-12-13T06:41:43.831Z,10.15
2022-12-13T06:44:11.771Z,12.00
2022-12-13T06:46:40.956Z,16.70
2022-12-13T06:49:09.738Z,9.60
2022-12-13T06:51:37.654Z,13.10
2022-12-13T06:54:08.266Z,15.10
2022-12-13T06:56:36.149Z,15.20
2022-12-13T06:59:04.126Z,19.75
2022-12-13T07:01:36.904Z,12.77
2022-12-13T07:04:29.704Z,14.75
2022-12-13T07:07:01.776Z,19.60
2022-12-13T07:09:32.092Z,13.93
2022-12-13T07:12:00.623Z,13.90
2022-12-13T07:14:28.647Z,14.07
2022-12-13T07:17:03.176Z,12.75
2022-12-13T07:19:34.824Z,17.77
2022-12-13T07:22:05.760Z,13.60
2022-12-13T07:24:36.174Z,15.35
2022-12-13T07:27:04.393Z,15.05
2022-12-13T07:29:32.499Z,19.35
2022-12-13T07:32:01.087Z,12.32
2022-12-13T07:34:29.819Z,11.18
2022-12-13T07:36:57.754Z,12.70
2022-12-13T07:39:26.923Z,17.25
2022-12-13T07:41:56.944Z,16.05
2022-12-13T07:44:25.104Z,16.02
2022-12-13T07:46:53.388Z,12.10
2022-12-13T07:49:21.375Z,10.73
2022-12-13T07:51:49.708Z,11.95
2022-12-13T07:54:17.888Z,12.00
2022-12-13T07:56:46.069Z,17.38
2022-12-13T07:59:15.600Z,11.80
2022-12-13T08:01:43.537Z,11.50
2022-12-13T08:04:11.483Z,18.75
2022-12-13T08:06:39.928Z,16.42
2022-12-13T08:09:07.951Z,11.88
2022-12-13T08:11:35.918Z,12.75
2022-12-13T08:14:04.259Z,14.00
2022-12-13T08:16:33.673Z,10.18
2022-12-13T08:19:04.650Z,13.18
2022-12-13T08:21:53.891Z,14.70
2022-12-13T08:24:23.039Z,15.27
2022-12-13T08:26:50.946Z,15.35
2022-12-13T08:29:22.819Z,17.27
2022-12-13T08:32:04.815Z,16.17
2022-12-13T08:34:32.731Z,15.30
2022-12-13T08:37:03.205Z,17.10
2022-12-13T08:39:34.760Z,14.27
2022-12-13T08:42:15.947Z,20.73
2022-12-13T08:44:46.649Z,18.92
2022-12-13T08:47:22.942Z,17.35
2022-12-13T08:49:51.965Z,22.98
2022-12-13T08:52:20.395Z,19.23
2022-12-13T08:54:48.491Z,16.98
2022-12-13T08:57:16.520Z,19.05
2022-12-13T08:59:44.562Z,15.70
2022-12-13T09:02:15.675Z,18.70
2022-12-13T09:04:44.363Z,17.02
2022-12-13T09:07:12.323Z,18.45
2022-12-13T09:09:40.216Z,17.15
2022-12-13T09:12:10.517Z,20.15
2022-12-13T09:15:00.927Z,22.15
2022-12-13T09:17:36.702Z,21.73
2022-12-13T09:20:10.275Z,16.75
2022-12-13T09:23:01.904Z,27.10
2022-12-13T09:25:37.475Z,22.67
2022-12-13T09:28:07.845Z,18.58
2022-12-13T09:30:35.845Z,20.80
2022-12-13T09:33:28.313Z,24.92
2022-12-13T09:35:53.622Z,19.90
2022-12-13T09:38:21.953Z,23.53
2022-12-13T09:40:58.578Z,18.30
2022-12-13T09:43:32.626Z,24.53
2022-12-13T09:46:05.121Z,25.13
2022-12-13T09:48:48.323Z,16.50
2022-12-13T09:51:27.268Z,22.40
2022-12-13T09:54:00.043Z,18.67
2022-12-13T09:56:28.928Z,21.40
2022-12-13T09:58:58.740Z,18.97
2022-12-13T10:01:26.993Z,20.00
2022-12-13T10:04:00.364Z,19.40
2022-12-13T10:06:32.738Z,20.77
2022-12-13T10:09:01.738Z,25.93
2022-12-13T10:11:31.482Z,20.80
2022-12-13T10:14:04.285Z,21.40
2022-12-13T10:16:42.068Z,22.53
2022-12-13T10:19:28.368Z,18.53
2022-12-13T10:22:01.265Z,18.77
2022-12-13T10:24:36.792Z,16.23
2022-12-13T10:27:13.087Z,18.87
2022-12-13T10:30:00.529Z,20.30
2022-12-13T10:32:29.189Z,17.03
2022-12-13T10:34:58.564Z,17.77
2022-12-13T10:37:29.757Z,14.57
2022-12-13T10:39:58.009Z,14.00
2022-12-13T10:42:32.190Z,18.90
2022-12-13T10:45:23.772Z,15.70
2022-12-13T10:47:52.094Z,15.30
2022-12-13T10:50:28.296Z,20.00
2022-12-13T10:52:57.836Z,18.93
2022-12-13T10:55:29.743Z,18.53
2022-12-13T10:58:00.837Z,15.43
2022-12-13T11:00:35.697Z,15.10
2022-12-13T11:03:03.830Z,19.07
2022-12-13T11:05:34.837Z,15.80
2022-12-13T11:08:17.662Z,18.83
2022-12-13T11:10:45.606Z,17.47
2022-12-13T11:13:25.006Z,13.90
2022-12-13T11:15:56.971Z,15.20
2022-12-13T11:18:28.104Z,12.47
2022-12-13T11:21:00.594Z,12.63
2022-12-13T11:23:32.942Z,17.33
2022-12-13T11:26:07.065Z,13.23
2022-12-13T11:28:49.126Z,16.20
2022-12-13T11:31:23.393Z,12.00
2022-12-13T11:34:01.936Z,14.43
2022-12-13T11:36:41.032Z,11.53
2022-12-13T11:39:18.938Z,11.93
2022-12-13T11:41:55.286Z,15.20
2022-12-13T11:44:30.456Z,10.00
2022-12-13T11:47:00.974Z,12.50
2022-12-13T11:49:38.257Z,13.57
2022-12-13T11:52:15.844Z,13.57
2022-12-13T11:54:50.409Z,14.07
2022-12-13T11:57:32.529Z,15.00
2022-12-13T12:00:13.311Z,11.97
2022-12-13T12:02:45.657Z,14.40
2022-12-13T12:05:26.733Z,10.43
2022-12-13T12:10:53.207Z,11.40
2022-12-13T12:13:25.507Z,12.93
2022-12-13T12:16:06.203Z,12.10
2022-12-13T12:18:34.345Z,13.10
2022-12-13T12:21:13.607Z,8.87
2022-12-13T12:23:57.139Z,14.20
2022-12-13T12:26:32.425Z,12.07
2022-12-13T12:29:18.456Z,11.50
2022-12-13T12:31:56.739Z,10.60
2022-12-13T12:34:35.736Z,11.50
2022-12-13T12:37:13.678Z,16.17
2022-12-13T12:39:55.723Z,11.40
2022-12-13T12:42:56.534Z,18.07
2022-12-13T12:45:55.750Z,9.57
2022-12-13T12:48:57.023Z,6.83
2022-12-13T12:51:35.320Z,10.07
2022-12-13T12:54:19.967Z,9.63
2022-12-13T12:56:57.670Z,12.77
2022-12-13T12:59:37.304Z,11.27
2022-12-13T13:02:16.983Z,12.60
2022-12-13T13:04:49.283Z,8.37
2022-12-13T13:07:24.008Z,8.77
2022-12-13T13:09:54.889Z,9.13
2022-12-13T13:12:29.868Z,9.67
2022-12-13T13:15:00.320Z,8.07
2022-12-13T13:17:49.040Z,8.37
2022-12-13T13:20:23.440Z,12.77
2022-12-13T13:23:10.406Z,13.17
2022-12-13T13:26:07.685Z,10.00
2022-12-13T13:28:30.013Z,8.90
2022-12-13T13:31:10.166Z,8.90
2022-12-13T13:33:46.744Z,8.90
2022-12-13T13:36:53.428Z,9.40
2022-12-13T13:39:39.925Z,10.90
2022-12-13T13:42:18.646Z,11.70
2022-12-13T13:45:16.337Z,9.67
2022-12-13T13:47:51.920Z,11.30
2022-12-13T13:50:56.628Z,13.93
2022-12-13T13:53:55.987Z,11.80
2022-12-13T13:56:54.186Z,13.90
2022-12-13T13:59:59.997Z,15.70
2022-12-13T14:03:09.035Z,13.30
2022-12-13T14:06:12.657Z,12.23
2022-12-13T14:08:52.117Z,16.10
2022-12-13T14:11:38.352Z,11.80
2022-12-13T14:14:40.941Z,9.13
2022-12-13T14:17:38.572Z,7.43
2022-12-13T14:20:38.801Z,9.73
2022-12-13T14:23:13.600Z,11.77
2022-12-13T14:26:05.380Z,9.27
2022-12-13T14:28:46.022Z,9.87
2022-12-13T14:31:21.810Z,12.40
2022-12-13T14:33:52.900Z,7.80
2022-12-13T14:36:29.649Z,7.93
2022-12-13T14:39:03.227Z,13.00
2022-12-13T14:41:31.540Z,10.47
2022-12-13T14:44:14.785Z,12.70
2022-12-13T14:46:51.114Z,12.63
2022-12-13T14:49:20.154Z,10.93
2022-12-13T14:51:49.958Z,9.73
2022-12-13T14:54:26.105Z,13.20
2022-12-13T14:57:00.172Z,11.67
2022-12-13T14:59:29.415Z,13.87
2022-12-13T15:02:00.207Z,12.43
2022-12-13T15:04:30.725Z,12.90
2022-12-13T15:07:04.126Z,13.23
2022-12-13T15:09:37.981Z,10.27
2022-12-13T15:12:15.282Z,11.33
2022-12-13T15:15:00.808Z,11.90
2022-12-13T15:17:34.372Z,10.07
2022-12-13T15:20:03.307Z,9.53
2022-12-13T15:22:31.245Z,17.77
2022-12-13T15:25:01.373Z,10.00
2022-12-13T15:27:29.426Z,10.50
2022-12-13T15:29:57.532Z,8.10
2022-12-13T15:32:25.513Z,9.40
2022-12-13T15:34:53.482Z,11.33
2022-12-13T15:37:29.396Z,12.20
2022-12-13T15:40:02.198Z,9.43
2022-12-13T15:42:33.973Z,10.47
2022-12-13T15:45:06.043Z,11.87
2022-12-13T15:47:34.450Z,9.43
2022-12-13T15:50:04.591Z,12.97
2022-12-13T15:52:36.361Z,10.80
2022-12-13T15:55:28.627Z,11.18
2022-12-13T15:57:58.753Z,13.70
2022-12-13T16:00:32.091Z,6.65
2022-12-13T16:03:08.652Z,13.37
2022-12-13T16:05:40.238Z,12.60
2022-12-13T16:08:19.531Z,11.77
2022-12-13T16:10:50.980Z,10.75
2022-12-13T16:13:25.662Z,8.53
2022-12-13T16:16:08.540Z,7.60
2022-12-13T16:18:45.650Z,8.55
2022-12-13T16:21:14.315Z,8.32
2022-12-13T16:23:48.384Z,8.68
2022-12-13T16:26:24.048Z,10.02
2022-12-13T16:28:52.023Z,9.60
2022-12-13T16:31:22.298Z,10.05
2022-12-13T16:33:50.450Z,12.38
2022-12-13T16:36:18.417Z,8.27
2022-12-13T16:38:46.314Z,12.45
2022-12-13T16:41:15.721Z,17.27
2022-12-13T16:43:53.997Z,12.48
2022-12-13T16:47:18.161Z,13.00
2022-12-13T16:49:20.114Z,9.25
2022-12-13T16:51:49.151Z,9.43
2022-12-13T16:54:18.318Z,11.57
2022-12-13T16:56:46.268Z,14.27
2022-12-13T16:59:17.271Z,10.98
2022-12-13T17:01:45.949Z,14.75
2022-12-13T17:04:20.030Z,7.97
2022-12-13T17:06:49.553Z,9.52
2022-12-13T17:09:17.699Z,13.20
2022-12-13T17:11:46.148Z,10.60
2022-12-13T17:14:15.368Z,11.45
2022-12-13T17:16:43.442Z,8.93
2022-12-13T17:19:11.891Z,11.43
2022-12-13T17:21:39.836Z,12.10
2022-12-13T17:24:08.277Z,12.48
2022-12-13T17:26:36.233Z,16.88
2022-12-13T17:29:04.432Z,13.20
2022-12-13T17:31:36.200Z,10.90
2022-12-13T17:34:05.212Z,8.40
2022-12-13T17:36:33.301Z,12.43
2022-12-13T17:39:01.962Z,8.70
2022-12-13T17:41:29.953Z,11.63
2022-12-13T17:44:00.887Z,11.38
2022-12-13T17:46:28.940Z,15.63
2022-12-13T17:48:58.358Z,13.07
2022-12-13T17:51:26.248Z,12.73
2022-12-13T17:53:54.184Z,10.30
2022-12-13T17:56:22.165Z,10.32
2022-12-13T17:58:50.165Z,9.88
2022-12-13T18:01:19.849Z,11.80
2022-12-13T18:03:48.885Z,12.18
2022-12-13T18:06:18.486Z,10.27
2022-12-13T18:08:47.111Z,8.40
2022-12-13T18:11:33.742Z,8.82
2022-12-13T18:14:02.609Z,9.05
2022-12-13T18:16:36.385Z,7.72
2022-12-13T18:19:06.929Z,8.73
2022-12-13T18:21:36.854Z,7.50
2022-12-13T18:24:06.136Z,13.70
2022-12-13T18:26:34.778Z,9.20
2022-12-13T18:29:03.223Z,10.70
2022-12-13T18:31:31.247Z,10.23
2022-12-13T18:33:59.399Z,11.25
2022-12-13T18:36:27.818Z,9.13
2022-12-13T18:38:57.460Z,11.45
2022-12-13T18:41:28.170Z,9.48
2022-12-13T18:43:59.389Z,9.55
2022-12-13T18:46:29.405Z,8.15
2022-12-13T18:48:57.857Z,7.90
2022-12-13T18:51:26.708Z,7.70
2022-12-13T18:53:57.019Z,9.10
2022-12-13T18:56:25.936Z,7.38
2022-12-13T18:58:54.312Z,9.23
2022-12-13T19:01:25.431Z,8.88
2022-12-13T19:03:53.694Z,7.85
2022-12-13T19:06:24.156Z,9.40
2022-12-13T19:08:53.829Z,11.82
2022-12-13T19:11:23.838Z,8.90
2022-12-13T19:13:51.764Z,9.40
2022-12-13T19:16:21.756Z,9.57
2022-12-13T19:18:49.883Z,8.45
2022-12-13T19:21:19.808Z,9.43
2022-12-13T19:23:55.069Z,8.60
2022-12-13T19:26:28.015Z,8.95
2022-12-13T19:28:57.512Z,10.45
2022-12-13T19:31:31.236Z,5.88
2022-12-13T19:34:00.807Z,8.75
2022-12-13T19:36:29.115Z,10.63
2022-12-13T19:38:57.137Z,8.77
2022-12-13T19:41:27.107Z,10.50
2022-12-13T19:43:55.319Z,9.07
2022-12-13T19:46:23.364Z,4.97
2022-12-13T19:48:51.366Z,9.90
2022-12-13T19:51:19.380Z,13.02
2022-12-13T19:53:47.382Z,7.63
2022-12-13T19:56:17.744Z,9.82
2022-12-13T19:58:49.126Z,8.65
2022-12-13T20:01:17.710Z,10.98
2022-12-13T20:03:46.860Z,9.27
2022-12-13T20:06:17.080Z,14.43
2022-12-13T20:08:45.104Z,11.57
2022-12-13T20:11:15.515Z,7.53
2022-12-13T20:13:43.746Z,8.65
2022-12-13T20:16:18.409Z,10.38
2022-12-13T20:18:46.518Z,6.85
2022-12-13T20:21:15.605Z,10.05
2022-12-13T20:23:49.312Z,8.20
2022-12-13T20:26:20.805Z,6.72
2022-12-13T20:28:48.946Z,5.47
2022-12-13T20:31:20.020Z,7.47
2022-12-13T20:33:48.523Z,6.10
2022-12-13T20:36:27.425Z,8.82
2022-12-13T20:38:56.951Z,9.98
2022-12-13T20:41:26.198Z,9.10
2022-12-13T20:43:55.241Z,11.48
2022-12-13T20:46:25.767Z,10.20
2022-12-13T20:48:53.884Z,12.63
2022-12-13T20:51:23.794Z,5.78
2022-12-13T20:53:53.070Z,7.93
2022-12-13T20:56:23.157Z,10.30
2022-12-13T20:58:51.988Z,12.85
2022-12-13T21:01:22.165Z,10.38
2022-12-13T21:03:53.838Z,11.30
2022-12-13T21:06:21.819Z,12.98
2022-12-13T21:08:52.802Z,11.00
2022-12-13T21:11:28.836Z,17.92
2022-12-13T21:14:02.472Z,17.02
2022-12-13T21:16:35.145Z,20.25
2022-12-13T21:19:05.416Z,17.65
2022-12-13T21:21:33.361Z,25.27
2022-12-13T21:24:01.281Z,19.25
2022-12-13T21:26:34.871Z,14.10
2022-12-13T21:29:06.401Z,13.75
2022-12-13T21:31:35.017Z,12.07
2022-12-13T21:34:06.175Z,11.88
2022-12-13T21:36:35.145Z,12.90
2022-12-13T21:39:05.161Z,8.65
2022-12-13T21:41:33.243Z,6.07
2022-12-13T21:44:01.171Z,9.23
2022-12-13T21:46:47.883Z,9.25
2022-12-13T21:49:19.470Z,7.82
2022-12-13T21:51:48.349Z,7.63
2022-12-13T21:54:16.857Z,8.23
2022-12-13T21:57:02.120Z,7.97
2022-12-13T21:59:30.825Z,8.15
2022-12-13T22:02:13.232Z,8.27
2022-12-13T22:04:44.436Z,10.70
2022-12-13T22:07:14.255Z,11.43
2022-12-13T22:09:42.456Z,8.13
2022-12-13T22:12:11.863Z,8.00
2022-12-13T22:14:39.756Z,10.67
2022-12-13T22:17:07.669Z,7.40
2022-12-13T22:19:35.531Z,8.97
2022-12-13T22:22:04.912Z,10.80
2022-12-13T22:24:32.853Z,7.47
2022-12-13T22:27:01.519Z,9.77
2022-12-13T22:29:29.604Z,11.13
2022-12-13T22:31:57.627Z,8.83
2022-12-13T22:34:25.537Z,10.40
2022-12-13T22:36:53.506Z,11.77
2022-12-13T22:39:23.794Z,10.00
2022-12-13T22:41:52.714Z,11.10
2022-12-13T22:44:21.513Z,8.90
2022-12-13T22:46:49.566Z,9.10
2022-12-13T22:49:17.847Z,11.80
2022-12-13T22:51:45.862Z,8.10
2022-12-13T22:54:13.755Z,8.50
2022-12-13T22:56:43.035Z,7.90
2022-12-13T22:59:10.914Z,9.37
2022-12-13T23:01:40.476Z,10.27
2022-12-13T23:04:09.050Z,7.50
2022-12-13T23:06:38.987Z,9.10
2022-12-13T23:09:08.436Z,8.80
2022-12-13T23:11:53.687Z,12.27
2022-12-13T23:14:31.905Z,9.55
2022-12-13T23:17:00.372Z,7.40
2022-12-13T23:19:49.724Z,9.50
2022-12-13T23:22:17.567Z,8.97
2022-12-13T23:24:45.515Z,10.80
2022-12-13T23:27:13.409Z,9.17
2022-12-13T23:29:42.680Z,9.30
2022-12-13T23:32:10.594Z,7.10
2022-12-13T23:34:38.513Z,9.40
2022-12-13T23:37:06.462Z,10.67
2022-12-13T23:39:34.354Z,9.17
2022-12-13T23:42:02.262Z,10.47
2022-12-13T23:44:30.172Z,7.03
2022-12-13T23:46:59.408Z,10.60
2022-12-13T23:49:27.296Z,9.47
2022-12-13T23:51:55.249Z,8.53
2022-12-13T23:54:23.155Z,7.43
2022-12-13T23:56:51.141Z,7.77
2022-12-13T23:59:19.079Z,9.90
